Time;durP1;ratioP1;P1;durP2;ratioP2;P2;SDS_P1;SDS_P2;PMS_P1;PMS_P2;Temp;Humidity;BMP_temperature;BMP_pressure;BME280_temperature;BME280_humidity;BME280_pressure;Samples;Min_cycle;Max_cycle;Signal;HPM_P1;HPM_P2
2022/04/22 00:01:09;;;;;;;1.80;1.00;;;16.20;57.40;;;;;;5016972;28;20652;-74
2022/04/22 00:03:36;;;;;;;1.88;1.10;;;16.10;57.30;;;;;;5023821;28;20049;-74
2022/04/22 00:06:08;;;;;;;2.92;1.10;;;16.10;57.30;;;;;;5023086;28;20041;-74
2022/04/22 00:08:38;;;;;;;2.58;0.98;;;16.10;57.30;;;;;;5027426;28;20398;-74
2022/04/22 00:13:57;;;;;;;2.03;1.17;;;16.20;57.40;;;;;;5024601;28;20042;-75
2022/04/22 00:16:24;;;;;;;1.45;1.10;;;16.10;57.30;;;;;;5019795;28;20048;-74
2022/04/22 00:18:51;;;;;;;1.92;1.15;;;16.10;57.30;;;;;;5024743;28;20053;-74
2022/04/22 00:21:19;;;;;;;2.25;1.25;;;16.10;57.30;;;;;;5000806;28;20037;-74
2022/04/22 00:23:46;;;;;;;2.72;1.10;;;16.10;57.40;;;;;;5005684;28;20044;-74
2022/04/22 00:26:15;;;;;;;1.67;0.93;;;16.10;57.40;;;;;;5025856;28;20105;-74
2022/04/22 00:28:41;;;;;;;2.58;1.33;;;16.10;57.40;;;;;;5024434;28;20182;-73
2022/04/22 00:31:08;;;;;;;2.15;1.02;;;16.10;57.40;;;;;;5024020;28;20037;-74
2022/04/22 00:33:35;;;;;;;1.92;1.20;;;16.10;58.00;;;;;;5022991;28;20408;-74
2022/04/22 00:36:02;;;;;;;2.47;1.30;;;16.10;57.50;;;;;;5020002;28;20060;-73
2022/04/22 00:38:38;;;;;;;1.60;1.10;;;16.10;57.50;;;;;;5007135;28;20497;-73
2022/04/22 00:41:05;;;;;;;2.63;1.33;;;16.10;57.40;;;;;;5022325;28;20112;-74
2022/04/22 00:43:44;;;;;;;2.10;1.17;;;16.10;57.50;;;;;;5020267;28;20535;-74
2022/04/22 00:46:18;;;;;;;1.83;1.15;;;16.10;57.50;;;;;;5016663;28;20103;-73
2022/04/22 00:48:45;;;;;;;2.92;1.20;;;16.10;57.50;;;;;;5024888;28;20130;-73
2022/04/22 00:51:21;;;;;;;1.88;1.13;;;16.10;57.50;;;;;;5014989;28;20057;-73
2022/04/22 00:53:49;;;;;;;1.70;1.20;;;16.10;57.50;;;;;;5023756;28;20041;-74
2022/04/22 00:56:19;;;;;;;1.98;1.20;;;16.10;57.60;;;;;;5018744;28;20042;-73
2022/04/22 00:58:49;;;;;;;1.75;1.13;;;16.20;58.20;;;;;;5029185;28;20047;-73
2022/04/22 01:01:35;;;;;;;1.83;0.93;;;16.10;57.60;;;;;;5009791;28;20065;-74
2022/04/22 01:09:51;;;;;;;2.20;1.20;;;16.10;57.60;;;;;;4978966;28;20096;-74
2022/04/22 01:12:31;;;;;;;1.80;1.10;;;16.20;57.70;;;;;;4992943;28;20046;-74
2022/04/22 01:14:59;;;;;;;2.28;1.17;;;16.10;57.60;;;;;;4997943;28;20038;-74
2022/04/22 01:17:26;;;;;;;2.03;1.30;;;16.10;57.60;;;;;;5001453;28;20064;-73
2022/04/22 01:19:55;;;;;;;2.38;1.35;;;16.10;57.60;;;;;;5004555;28;20125;-74
2022/04/22 01:22:42;;;;;;;1.85;1.10;;;16.10;57.70;;;;;;4996260;28;20057;-74
2022/04/22 01:25:09;;;;;;;1.73;1.25;;;16.10;57.70;;;;;;4978640;28;20049;-73
2022/04/22 01:27:55;;;;;;;4.03;1.30;;;16.00;57.60;;;;;;4999599;28;20116;-74
2022/04/22 01:30:25;;;;;;;2.95;1.20;;;16.00;57.60;;;;;;4998705;28;20041;-74
2022/04/22 01:32:54;;;;;;;1.80;1.27;;;16.00;57.60;;;;;;5000761;28;20049;-74
2022/04/22 01:35:23;;;;;;;3.97;1.40;;;16.10;57.70;;;;;;4980413;28;20042;-74
2022/04/22 01:37:51;;;;;;;2.53;1.25;;;16.10;57.70;;;;;;4986827;28;20049;-73
2022/04/22 01:40:19;;;;;;;1.80;1.10;;;16.10;57.70;;;;;;4999915;28;20034;-73
2022/04/22 01:42:46;;;;;;;2.95;1.30;;;16.10;57.80;;;;;;4999536;28;20034;-74
2022/04/22 01:45:14;;;;;;;2.47;1.30;;;16.10;57.80;;;;;;5000476;28;20065;-73
2022/04/22 01:47:41;;;;;;;2.20;1.23;;;16.00;57.70;;;;;;5000044;28;20066;-73
2022/04/22 01:50:09;;;;;;;1.63;1.10;;;16.10;57.80;;;;;;4996553;28;20068;-73
2022/04/22 01:52:37;;;;;;;1.70;1.30;;;16.00;57.70;;;;;;4997677;28;20048;-74
2022/04/22 01:55:10;;;;;;;2.08;1.13;;;16.00;57.70;;;;;;4995834;28;20092;-73
2022/04/22 01:57:38;;;;;;;2.38;1.27;;;16.00;57.70;;;;;;4991411;28;20085;-74
2022/04/22 02:00:11;;;;;;;2.03;1.30;;;16.10;57.90;;;;;;5000769;28;20030;-74
2022/04/22 02:02:38;;;;;;;2.03;1.15;;;16.00;57.80;;;;;;5016739;28;20064;-74
2022/04/22 02:05:09;;;;;;;3.10;1.45;;;16.00;57.70;;;;;;5016606;28;20065;-73
2022/04/22 02:07:41;;;;;;;3.55;1.48;;;16.00;57.80;;;;;;4998405;28;20046;-74
2022/04/22 02:10:10;;;;;;;1.80;1.23;;;16.10;57.90;;;;;;5007690;28;20037;-74
2022/04/22 02:12:40;;;;;;;1.77;1.10;;;16.00;57.80;;;;;;5018074;28;20354;-73
2022/04/22 02:15:09;;;;;;;1.63;1.17;;;16.00;57.80;;;;;;5011372;28;20503;-74
2022/04/22 02:17:36;;;;;;;2.53;1.35;;;16.00;57.80;;;;;;5001066;28;20128;-72
2022/04/22 02:20:11;;;;;;;2.17;1.35;;;16.00;57.90;;;;;;4999831;28;20045;-73
2022/04/22 02:22:38;;;;;;;2.55;1.35;;;16.00;57.90;;;;;;5019186;28;20041;-74
2022/04/22 02:25:08;;;;;;;2.05;1.20;;;16.00;57.90;;;;;;5023585;28;20565;-73
2022/04/22 02:30:38;;;;;;;2.78;1.40;;;16.00;57.90;;;;;;5003229;28;20131;-74
2022/04/22 02:33:08;;;;;;;1.70;1.10;;;16.00;57.90;;;;;;4998977;28;20631;-73
2022/04/22 02:35:35;;;;;;;1.60;1.15;;;16.00;57.90;;;;;;5014549;28;20045;-73
2022/04/22 02:38:08;;;;;;;2.22;1.30;;;16.00;57.90;;;;;;5016811;28;20104;-74
2022/04/22 02:46:12;;;;;;;1.92;1.30;;;16.00;57.90;;;;;;5017118;28;20045;-73
2022/04/22 02:48:45;;;;;;;2.53;1.30;;;16.00;58.00;;;;;;5018666;28;20041;-73
2022/04/22 02:51:16;;;;;;;2.00;1.20;;;16.00;58.00;;;;;;4996373;28;20132;-74
2022/04/22 02:53:43;;;;;;;1.90;1.25;;;16.10;58.10;;;;;;5003420;28;20037;-73
2022/04/22 02:56:11;;;;;;;2.85;1.40;;;16.00;58.00;;;;;;5017792;28;20057;-73
2022/04/22 02:58:45;;;;;;;1.45;1.15;;;16.00;58.00;;;;;;5012506;28;20037;-74
2022/04/22 03:01:15;;;;;;;3.10;1.55;;;16.00;58.00;;;;;;5014009;28;20061;-73
2022/04/22 03:03:43;;;;;;;1.52;1.20;;;16.00;58.00;;;;;;5016973;28;20052;-73
2022/04/22 03:06:09;;;;;;;2.17;1.33;;;16.00;58.00;;;;;;4997251;28;20046;-73
2022/04/22 03:08:48;;;;;;;2.00;1.23;;;16.00;58.00;;;;;;5006869;28;20057;-73
2022/04/22 03:11:21;;;;;;;2.10;1.58;;;16.00;58.10;;;;;;5012640;28;20049;-74
2022/04/22 03:14:08;;;;;;;1.77;1.15;;;16.00;58.10;;;;;;5013573;28;20862;-74
2022/04/22 03:16:36;;;;;;;1.80;1.10;;;16.00;58.00;;;;;;5014562;28;20128;-73
2022/04/22 03:19:08;;;;;;;1.60;1.20;;;16.00;58.10;;;;;;4994892;28;20052;-73
2022/04/22 03:21:38;;;;;;;2.00;1.55;;;16.00;58.10;;;;;;5013427;28;20563;-73
2022/04/22 03:24:09;;;;;;;1.92;1.40;;;16.00;58.10;;;;;;5015224;28;20103;-74
2022/04/22 03:26:46;;;;;;;1.98;1.38;;;16.00;58.10;;;;;;5013590;28;20043;-73
2022/04/22 03:29:14;;;;;;;2.22;1.30;;;16.00;58.10;;;;;;5015727;28;20688;-74
2022/04/22 03:31:42;;;;;;;3.10;1.50;;;16.00;58.20;;;;;;5012366;28;20041;-74
2022/04/22 03:34:09;;;;;;;1.70;1.23;;;16.00;58.10;;;;;;5014627;28;20550;-73
2022/04/22 03:36:36;;;;;;;1.65;1.20;;;16.00;58.10;;;;;;5018658;28;20045;-73
2022/04/22 03:39:09;;;;;;;2.33;1.60;;;16.00;58.10;;;;;;5022741;28;20140;-73
2022/04/22 03:41:38;;;;;;;1.90;1.25;;;15.90;58.10;;;;;;5012151;28;20627;-74
2022/04/22 03:44:08;;;;;;;2.10;1.30;;;16.00;58.10;;;;;;5014280;28;20045;-73
2022/04/22 03:46:41;;;;;;;1.73;1.10;;;15.90;58.10;;;;;;5017741;28;20048;-73
2022/04/22 03:49:09;;;;;;;2.80;1.20;;;16.00;58.20;;;;;;5012348;28;20042;-73
2022/04/22 03:51:36;;;;;;;2.28;1.40;;;15.90;58.20;;;;;;5000331;28;20050;-74
2022/04/22 03:54:08;;;;;;;1.77;1.30;;;16.00;58.20;;;;;;5018589;28;20073;-73
2022/04/22 03:59:26;;;;;;;1.80;1.40;;;16.00;58.30;;;;;;5013384;28;20077;-74
2022/04/22 04:01:54;;;;;;;2.05;1.30;;;15.90;58.20;;;;;;5000943;28;20084;-73
2022/04/22 04:04:21;;;;;;;1.85;1.40;;;15.90;58.20;;;;;;4992935;28;20042;-73
2022/04/22 04:07:01;;;;;;;1.88;1.35;;;15.90;58.20;;;;;;4976321;28;20054;-74
2022/04/22 04:17:56;;;;;;;2.35;1.50;;;15.90;58.20;;;;;;4998485;28;20173;-75
2022/04/22 04:23:17;;;;;;;3.03;1.58;;;15.90;58.20;;;;;;4986468;28;20042;-75
2022/04/22 04:25:46;;;;;;;1.63;1.30;;;15.90;58.30;;;;;;4990763;28;20412;-75
2022/04/22 04:28:23;;;;;;;3.35;1.40;;;15.90;58.30;;;;;;4989520;28;20038;-74
2022/04/22 04:30:55;;;;;;;2.17;1.40;;;15.90;58.30;;;;;;4986733;28;20504;-76
2022/04/22 04:33:27;;;;;;;1.67;1.13;;;15.90;58.30;;;;;;4997819;28;20046;-74
2022/04/22 04:35:54;;;;;;;2.47;1.60;;;15.90;58.30;;;;;;4973061;28;20773;-74
2022/04/22 04:38:22;;;;;;;2.13;1.50;;;15.90;58.30;;;;;;4978304;28;20055;-75
2022/04/22 04:40:49;;;;;;;2.63;1.60;;;15.90;58.90;;;;;;4997787;28;20112;-74
2022/04/22 04:43:16;;;;;;;1.92;1.45;;;15.90;58.30;;;;;;4987343;28;20052;-74
2022/04/22 04:45:44;;;;;;;2.00;1.45;;;15.90;58.40;;;;;;5003847;28;20124;-75
2022/04/22 04:48:14;;;;;;;2.95;1.50;;;15.90;58.40;;;;;;5003347;28;20049;-74
2022/04/22 04:50:44;;;;;;;1.90;1.30;;;15.90;58.30;;;;;;5003211;28;20038;-74
2022/04/22 04:53:27;;;;;;;2.40;1.50;;;15.90;58.30;;;;;;5007645;28;20080;-74
2022/04/22 04:55:54;;;;;;;2.17;1.50;;;15.90;58.30;;;;;;5000329;28;20052;-74
2022/04/22 04:58:21;;;;;;;4.80;1.55;;;15.90;58.40;;;;;;4997092;28;20678;-74
2022/04/22 05:00:53;;;;;;;2.25;1.55;;;15.90;58.40;;;;;;5000526;28;20062;-74
2022/04/22 05:03:24;;;;;;;2.00;1.48;;;15.90;58.40;;;;;;5000512;28;20046;-75
2022/04/22 05:05:55;;;;;;;1.63;1.23;;;15.90;58.30;;;;;;4999647;28;20048;-74
2022/04/22 05:08:26;;;;;;;2.33;1.50;;;15.90;58.40;;;;;;4984548;28;20085;-75
2022/04/22 05:11:08;;;;;;;1.80;1.27;;;15.90;58.40;;;;;;5000802;28;20042;-75
2022/04/22 05:13:36;;;;;;;2.28;1.42;;;15.90;58.40;;;;;;4999506;28;20042;-78
2022/04/22 05:16:08;;;;;;;3.92;1.73;;;15.90;58.40;;;;;;4994547;28;20038;-77
2022/04/22 05:18:42;;;;;;;6.70;1.80;;;15.90;58.50;;;;;;4998482;28;20481;-76
2022/04/22 05:21:12;;;;;;;3.72;1.92;;;15.90;58.60;;;;;;5001970;28;20048;-75
2022/04/22 05:23:45;;;;;;;8.07;1.88;;;15.90;58.70;;;;;;4998617;28;20042;-75
2022/04/22 05:26:11;;;;;;;8.25;1.85;;;15.90;58.70;;;;;;4995179;28;20112;-75
2022/04/22 05:28:47;;;;;;;7.38;1.90;;;15.90;58.70;;;;;;5001773;28;20049;-75
2022/04/22 05:34:08;;;;;;;4.95;1.95;;;15.90;58.70;;;;;;5006085;28;20056;-75
2022/04/22 05:36:38;;;;;;;2.67;1.67;;;16.00;58.80;;;;;;5011101;28;20038;-75
2022/04/22 05:39:10;;;;;;;3.38;1.75;;;15.90;58.70;;;;;;5006543;28;20056;-74
2022/04/22 05:41:37;;;;;;;4.68;2.15;;;15.90;58.80;;;;;;5004475;28;20042;-73
2022/04/22 05:44:08;;;;;;;4.53;2.35;;;15.90;58.80;;;;;;5000269;28;20084;-76
2022/04/22 05:46:45;;;;;;;3.45;2.00;;;15.90;58.80;;;;;;4996787;28;20049;-77
2022/04/22 05:49:11;;;;;;;4.55;1.83;;;15.90;58.80;;;;;;4998435;28;20066;-74
2022/04/22 05:51:39;;;;;;;4.72;1.63;;;15.90;58.80;;;;;;5001908;28;20117;-74
2022/04/22 05:54:08;;;;;;;4.18;1.90;;;15.90;58.70;;;;;;4981976;28;20058;-73
2022/04/22 05:56:37;;;;;;;5.28;1.92;;;15.90;58.80;;;;;;4984465;28;20060;-73
2022/04/22 05:59:04;;;;;;;4.00;2.00;;;15.90;58.80;;;;;;4999759;28;20056;-73
2022/04/22 06:01:45;;;;;;;3.22;2.17;;;15.90;58.70;;;;;;5012649;28;20069;-73
2022/04/22 06:04:17;;;;;;;5.82;2.22;;;16.00;58.80;;;;;;5022849;28;20087;-74
2022/04/22 06:06:46;;;;;;;3.63;1.65;;;15.90;58.70;;;;;;5020153;28;20033;-74
2022/04/22 06:12:10;;;;;;;2.55;1.50;;;15.90;58.60;;;;;;5017148;28;20041;-74
2022/04/22 06:14:37;;;;;;;3.08;1.63;;;15.90;58.60;;;;;;5019387;28;20542;-73
2022/04/22 06:17:08;;;;;;;3.17;1.70;;;15.90;58.50;;;;;;5017832;28;20045;-74
2022/04/22 06:19:36;;;;;;;3.78;2.10;;;15.90;58.60;;;;;;5018829;28;20540;-74
2022/04/22 06:22:10;;;;;;;2.58;2.10;;;15.90;58.70;;;;;;5022440;28;20049;-74
2022/04/22 06:24:43;;;;;;;3.65;1.63;;;15.90;58.60;;;;;;5021229;28;20481;-73
2022/04/22 06:27:14;;;;;;;2.40;1.70;;;15.90;58.50;;;;;;5010678;28;20415;-74
2022/04/22 06:29:45;;;;;;;2.85;1.85;;;15.90;58.50;;;;;;5018596;28;20112;-73
2022/04/22 06:32:15;;;;;;;2.30;2.00;;;15.90;58.50;;;;;;5020733;28;20041;-73
2022/04/22 06:34:42;;;;;;;2.35;1.67;;;16.00;58.60;;;;;;5013180;28;20496;-74
2022/04/22 06:37:14;;;;;;;3.28;2.20;;;15.90;58.50;;;;;;5020179;28;20050;-73
2022/04/22 06:48:12;;;;;;;3.15;2.28;;;15.90;58.60;;;;;;5014899;28;20053;-73
2022/04/22 06:50:39;;;;;;;3.20;2.13;;;15.90;58.70;;;;;;5015262;28;20576;-74
2022/04/22 06:53:11;;;;;;;2.25;1.73;;;15.90;58.60;;;;;;5018996;28;20136;-73
2022/04/22 06:55:47;;;;;;;3.03;1.88;;;15.90;58.60;;;;;;5019274;28;20099;-74
2022/04/22 06:58:22;;;;;;;3.40;2.00;;;15.90;58.70;;;;;;5012822;28;20069;-74
2022/04/22 07:01:08;;;;;;;3.08;2.17;;;15.90;58.60;;;;;;5014278;28;20057;-74
2022/04/22 07:03:41;;;;;;;3.30;2.40;;;16.00;58.70;;;;;;4997651;28;20120;-75
2022/04/22 07:06:09;;;;;;;2.85;2.00;;;15.90;58.70;;;;;;5010769;28;20037;-73
2022/04/22 07:08:46;;;;;;;4.50;2.13;;;15.90;58.60;;;;;;5003355;28;20060;-74
2022/04/22 07:11:20;;;;;;;2.97;2.50;;;15.90;58.60;;;;;;4985422;28;20464;-73
2022/04/22 07:13:47;;;;;;;3.28;2.28;;;16.00;58.70;;;;;;4992734;28;20038;-74
2022/04/22 07:16:30;;;;;;;3.70;2.22;;;16.00;58.80;;;;;;4987129;28;20050;-73
2022/04/22 07:19:09;;;;;;;2.85;2.10;;;16.00;58.80;;;;;;5001753;28;20037;-74
2022/04/22 07:21:37;;;;;;;2.72;2.20;;;15.90;58.80;;;;;;4999705;28;20096;-73
2022/04/22 07:24:11;;;;;;;3.17;2.40;;;15.90;58.70;;;;;;4982203;28;20045;-73
2022/04/22 07:26:41;;;;;;;2.72;2.28;;;16.00;58.90;;;;;;4994967;28;20037;-74
2022/04/22 07:29:12;;;;;;;2.97;2.40;;;16.00;58.90;;;;;;4997706;28;20069;-73
2022/04/22 07:31:52;;;;;;;3.15;2.28;;;16.00;58.90;;;;;;4981749;28;20042;-76
2022/04/22 07:34:21;;;;;;;3.33;2.15;;;15.90;58.80;;;;;;5004286;28;20329;-73
2022/04/22 07:36:53;;;;;;;2.72;2.15;;;15.90;58.90;;;;;;4984998;28;20054;-73
2022/04/22 07:39:23;;;;;;;3.00;2.30;;;16.00;58.90;;;;;;4997314;28;20056;-74
2022/04/22 07:41:58;;;;;;;2.80;2.05;;;15.90;58.90;;;;;;4988707;28;20053;-73
2022/04/22 07:47:20;;;;;;;2.65;2.13;;;15.90;58.80;;;;;;5004655;28;20509;-74
2022/04/22 07:49:47;;;;;;;2.90;2.17;;;15.90;58.90;;;;;;4992007;28;20058;-74
2022/04/22 07:52:31;;;;;;;3.20;2.28;;;15.90;58.90;;;;;;5000352;28;20041;-74
2022/04/22 07:55:11;;;;;;;4.95;2.30;;;15.90;58.90;;;;;;4981214;28;20049;-74
2022/04/22 07:57:39;;;;;;;3.03;2.35;;;15.90;59.00;;;;;;4997967;28;20038;-75
2022/04/22 08:00:10;;;;;;;2.42;2.10;;;15.90;58.90;;;;;;4976243;28;20129;-76
2022/04/22 08:02:40;;;;;;;2.38;2.00;;;15.90;58.90;;;;;;4982160;28;20445;-75
2022/04/22 08:05:11;;;;;;;2.45;2.20;;;15.90;58.90;;;;;;4988421;28;20539;-74
2022/04/22 08:07:38;;;;;;;2.35;1.92;;;15.90;58.90;;;;;;4999356;28;20088;-75
2022/04/22 08:10:10;;;;;;;3.50;2.20;;;16.00;59.00;;;;;;4990526;28;20044;-74
2022/04/22 08:12:37;;;;;;;2.25;1.95;;;16.00;58.90;;;;;;4995875;28;20045;-74
2022/04/22 08:15:06;;;;;;;3.58;2.20;;;16.00;58.80;;;;;;4999204;28;20046;-75
2022/04/22 08:17:39;;;;;;;3.53;2.17;;;16.00;58.90;;;;;;5004345;28;20386;-74
2022/04/22 08:20:10;;;;;;;3.75;2.10;;;16.10;59.00;;;;;;5001424;28;20460;-75
2022/04/22 08:22:37;;;;;;;3.40;2.03;;;16.00;58.90;;;;;;5002704;28;20038;-74
2022/04/22 08:25:10;;;;;;;3.55;2.38;;;16.00;58.90;;;;;;4982727;28;20077;-74
2022/04/22 08:27:37;;;;;;;2.63;2.20;;;16.00;59.10;;;;;;4994394;28;20049;-74
2022/04/22 08:30:10;;;;;;;2.67;2.28;;;16.00;59.10;;;;;;5003045;28;20141;-76
2022/04/22 08:32:44;;;;;;;2.95;2.20;;;16.00;59.10;;;;;;5001850;28;20045;-75
2022/04/22 08:35:11;;;;;;;2.80;1.88;;;16.00;59.10;;;;;;4996784;28;20050;-75
2022/04/22 08:37:42;;;;;;;2.45;2.10;;;16.00;59.00;;;;;;5004517;28;20048;-75
2022/04/22 08:40:11;;;;;;;3.22;2.10;;;16.00;59.00;;;;;;5000364;28;20053;-75
2022/04/22 08:42:39;;;;;;;2.60;2.05;;;16.00;59.00;;;;;;5001995;28;20088;-75
2022/04/22 08:45:10;;;;;;;2.40;2.08;;;16.00;59.00;;;;;;5000974;28;20042;-75
2022/04/22 08:50:38;;;;;;;2.72;2.30;;;16.10;59.10;;;;;;4995308;28;20038;-75
2022/04/22 08:53:12;;;;;;;2.42;2.20;;;16.10;59.20;;;;;;5002863;28;20045;-74
2022/04/22 08:55:43;;;;;;;2.72;2.35;;;16.10;59.20;;;;;;5001056;28;20117;-74
2022/04/22 08:58:11;;;;;;;4.38;2.35;;;16.10;59.30;;;;;;5000197;28;20038;-76
2022/04/22 09:00:41;;;;;;;3.03;2.50;;;16.10;59.30;;;;;;5003226;28;20066;-74
2022/04/22 09:03:10;;;;;;;3.00;2.20;;;16.10;59.40;;;;;;5002691;28;20125;-74
2022/04/22 09:05:37;;;;;;;2.75;2.20;;;16.10;59.30;;;;;;4989242;28;20065;-74
2022/04/22 09:08:10;;;;;;;2.78;2.03;;;16.10;59.40;;;;;;5002999;28;20121;-76
2022/04/22 09:10:52;;;;;;;2.53;2.25;;;16.10;59.20;;;;;;4977032;28;20046;-73
2022/04/22 09:13:25;;;;;;;3.05;2.20;;;16.10;59.40;;;;;;5000893;28;20042;-75
2022/04/22 09:16:09;;;;;;;2.50;2.15;;;16.10;59.40;;;;;;4997507;28;20042;-76
2022/04/22 09:18:39;;;;;;;2.63;2.28;;;16.10;59.40;;;;;;4997247;28;20037;-76
2022/04/22 09:21:15;;;;;;;2.35;2.10;;;16.10;59.40;;;;;;5006171;28;20045;-76
2022/04/22 09:23:42;;;;;;;2.40;2.20;;;16.10;59.40;;;;;;4995650;28;20044;-76
2022/04/22 09:26:21;;;;;;;3.45;2.60;;;16.10;59.40;;;;;;5002160;28;20045;-76
2022/04/22 09:28:57;;;;;;;2.90;2.47;;;16.20;59.50;;;;;;5000726;28;20084;-76
2022/04/22 09:31:47;;;;;;;3.05;2.33;;;16.10;59.30;;;;;;5009831;28;20111;-74
2022/04/22 09:34:14;;;;;;;3.10;2.50;;;16.20;59.50;;;;;;5010912;28;20046;-74
2022/04/22 09:42:43;;;;;;;2.67;2.20;;;16.20;59.40;;;;;;4939510;29;20098;-75
2022/04/22 09:45:10;;;;;;;2.92;2.50;;;16.20;59.40;;;;;;4990360;28;20116;-75
2022/04/22 09:47:38;;;;;;;2.63;2.20;;;16.10;59.40;;;;;;5002607;28;20140;-75
2022/04/22 09:50:11;;;;;;;2.97;2.20;;;16.20;60.10;;;;;;5001601;28;20496;-74
2022/04/22 09:52:46;;;;;;;2.55;1.95;;;16.20;59.40;;;;;;5000067;28;20037;-74
2022/04/22 09:55:31;;;;;;;2.35;2.15;;;16.20;59.40;;;;;;5003054;28;20050;-76
2022/04/22 09:58:00;;;;;;;2.65;2.22;;;16.20;59.40;;;;;;4991319;28;20034;-74
2022/04/22 10:00:30;;;;;;;2.65;2.40;;;16.20;59.50;;;;;;5001587;28;20488;-74
2022/04/22 10:03:10;;;;;;;2.95;2.42;;;16.20;59.50;;;;;;5020549;28;20041;-73
2022/04/22 10:05:37;;;;;;;2.95;2.40;;;16.20;59.50;;;;;;5020548;28;20042;-75
2022/04/22 10:08:09;;;;;;;2.85;2.60;;;16.20;59.50;;;;;;5019814;28;20111;-74
2022/04/22 10:10:48;;;;;;;2.80;2.50;;;16.20;59.50;;;;;;5020335;28;20045;-75
2022/04/22 10:13:35;;;;;;;2.83;2.50;;;16.20;59.50;;;;;;4999484;28;20515;-76
2022/04/22 10:16:10;;;;;;;3.08;2.60;;;16.20;59.60;;;;;;4999052;28;20046;-73
2022/04/22 10:18:49;;;;;;;2.70;2.28;;;16.20;59.50;;;;;;5014126;28;20041;-74
2022/04/22 10:21:28;;;;;;;2.65;2.30;;;16.20;59.50;;;;;;5016079;28;20041;-74
2022/04/22 10:24:12;;;;;;;4.83;2.40;;;16.20;59.50;;;;;;5021203;28;20042;-73
2022/04/22 10:26:40;;;;;;;2.72;2.38;;;16.20;59.50;;;;;;4999823;28;20052;-75
2022/04/22 10:29:11;;;;;;;2.90;2.40;;;16.20;59.50;;;;;;5019528;28;20046;-74
2022/04/22 10:31:40;;;;;;;2.92;2.53;;;16.20;59.50;;;;;;5017057;28;20717;-74
2022/04/22 10:34:12;;;;;;;;;;;16.20;59.50;;;;;;5020359;28;20045;-74
2022/04/22 10:36:44;;;;;;;2.95;2.47;;;16.20;59.40;;;;;;4998549;28;19932;-75
2022/04/22 10:39:11;;;;;;;3.15;2.20;;;16.20;59.50;;;;;;5021758;28;20511;-74
2022/04/22 10:41:47;;;;;;;2.92;2.20;;;16.20;59.40;;;;;;5018887;28;20129;-75
2022/04/22 10:47:14;;;;;;;2.63;2.30;;;16.20;59.40;;;;;;4956221;28;20049;-75
2022/04/22 10:49:49;;;;;;;3.33;2.40;;;16.20;59.40;;;;;;5004574;28;20059;-75
2022/04/22 10:52:21;;;;;;;2.67;2.05;;;16.20;59.40;;;;;;5017172;28;20056;-74
2022/04/22 10:55:12;;;;;;;2.35;2.15;;;16.20;59.40;;;;;;5019109;28;20053;-75
2022/04/22 10:57:50;;;;;;;2.78;2.42;;;16.20;59.40;;;;;;5015394;28;20038;-75
2022/04/22 11:00:29;;;;;;;2.92;2.33;;;16.20;59.40;;;;;;5020689;28;20043;-75
2022/04/22 11:03:16;;;;;;;3.38;2.60;;;16.20;59.40;;;;;;4994909;28;20207;-74
2022/04/22 11:05:48;;;;;;;2.67;2.30;;;16.20;59.50;;;;;;5001415;28;20129;-74
2022/04/22 11:08:24;;;;;;;2.50;2.20;;;16.20;59.50;;;;;;4996497;28;20053;-74
2022/04/22 11:11:15;;;;;;;2.63;2.22;;;16.20;59.50;;;;;;4993213;28;20042;-74
2022/04/22 11:13:52;;;;;;;2.95;2.35;;;16.20;59.50;;;;;;4991416;28;20073;-74
2022/04/22 11:16:40;;;;;;;3.85;2.40;;;16.20;59.50;;;;;;4996082;28;20068;-72
2022/04/22 11:19:13;;;;;;;3.15;2.38;;;16.20;59.50;;;;;;4995195;28;20378;-72
2022/04/22 11:21:44;;;;;;;3.00;2.40;;;16.20;59.50;;;;;;4995850;28;20046;-73
2022/04/22 11:24:17;;;;;;;2.47;2.28;;;16.20;59.50;;;;;;4997754;28;20409;-73
2022/04/22 11:26:49;;;;;;;2.80;2.35;;;16.20;59.50;;;;;;4993800;28;20117;-73
2022/04/22 11:29:23;;;;;;;3.75;2.40;;;16.20;59.40;;;;;;5000599;28;20046;-74
2022/04/22 11:32:05;;;;;;;2.70;2.30;;;16.20;59.50;;;;;;4993765;28;20046;-74
2022/04/22 11:35:23;;;;;;;2.67;2.47;;;16.20;59.50;;;;;;4996087;28;20083;-74
2022/04/22 11:37:59;;;;;;;3.15;2.50;;;16.20;59.50;;;;;;5001084;28;20050;-73
2022/04/22 11:40:35;;;;;;;2.60;2.30;;;16.20;59.50;;;;;;5006108;28;20089;-74
2022/04/22 11:43:10;;;;;;;2.88;2.20;;;16.20;59.50;;;;;;4993697;28;20046;-73
2022/04/22 11:45:42;;;;;;;2.72;2.30;;;16.20;59.50;;;;;;4975295;28;20089;-73
2022/04/22 11:48:11;;;;;;;3.10;2.40;;;16.30;59.60;;;;;;4987680;28;20034;-73
2022/04/22 11:50:46;;;;;;;6.63;2.47;;;16.30;59.60;;;;;;4985909;28;20045;-74
2022/04/22 11:53:16;;;;;;;3.05;2.10;;;16.30;59.60;;;;;;4992789;28;20047;-74
2022/04/22 11:55:47;;;;;;;3.95;2.20;;;16.20;59.50;;;;;;4995877;28;20073;-74
2022/04/22 11:58:24;;;;;;;4.57;2.30;;;16.20;59.50;;;;;;4990243;28;20046;-74
2022/04/22 12:06:43;;;;;;;5.05;2.33;;;16.30;59.60;;;;;;5010810;28;20049;-73
2022/04/22 12:09:18;;;;;;;3.53;2.08;;;16.30;59.60;;;;;;5012181;28;20045;-73
2022/04/22 12:12:07;;;;;;;4.32;2.30;;;16.30;59.70;;;;;;5011001;28;20092;-72
2022/04/22 12:14:34;;;;;;;4.03;2.28;;;16.30;59.60;;;;;;5011688;28;20037;-73
2022/04/22 12:17:09;;;;;;;2.90;2.28;;;16.30;59.60;;;;;;4994218;28;20160;-73
2022/04/22 12:19:38;;;;;;;5.15;2.13;;;16.30;59.60;;;;;;5015446;28;20222;-73
2022/04/22 12:22:10;;;;;;;4.30;2.47;;;16.30;59.70;;;;;;5019155;28;20049;-73
2022/04/22 12:24:37;;;;;;;2.67;2.10;;;16.30;59.70;;;;;;5012256;28;20463;-73
2022/04/22 12:27:21;;;;;;;3.90;2.50;;;16.30;59.70;;;;;;5011537;28;20045;-73
2022/04/22 12:30:00;;;;;;;4.28;2.30;;;16.30;59.70;;;;;;5013928;28;20049;-73
2022/04/22 12:32:28;;;;;;;2.40;2.10;;;16.30;59.70;;;;;;5012994;28;20057;-73
2022/04/22 12:35:21;;;;;;;2.63;2.15;;;16.30;59.70;;;;;;5007293;28;20210;-73
2022/04/22 12:37:56;;;;;;;3.28;2.20;;;16.30;59.70;;;;;;5010360;28;20128;-73
2022/04/22 12:40:28;;;;;;;3.85;2.33;;;16.30;59.70;;;;;;4996413;28;20111;-73
2022/04/22 12:43:27;;;;;;;3.50;2.20;;;16.30;59.70;;;;;;5014684;28;20045;-73
2022/04/22 12:52:14;;;;;;;4.22;2.10;;;16.30;59.70;;;;;;5005955;28;20073;-72
2022/04/22 12:54:45;;;;;;;2.67;2.10;;;16.30;59.70;;;;;;5015123;28;20041;-74
2022/04/22 12:57:20;;;;;;;2.50;2.03;;;16.30;59.80;;;;;;5003481;28;20051;-73
2022/04/22 12:59:50;;;;;;;4.68;2.55;;;16.30;59.70;;;;;;5017776;28;20124;-74
2022/04/22 13:02:37;;;;;;;4.90;2.70;;;16.30;59.80;;;;;;5026494;28;20060;-74
2022/04/22 13:05:07;;;;;;;4.05;2.70;;;16.30;59.80;;;;;;5020231;28;20500;-74
2022/04/22 13:07:49;;;;;;;3.17;2.33;;;16.30;59.80;;;;;;5022422;28;20602;-75
2022/04/22 13:10:18;;;;;;;3.85;2.20;;;16.30;60.60;;;;;;5016999;28;20041;-74
2022/04/22 13:12:45;;;;;;;3.05;2.50;;;16.30;59.90;;;;;;4997766;28;20053;-75
2022/04/22 13:15:18;;;;;;;3.38;2.53;;;16.30;59.90;;;;;;5020483;28;20046;-74
2022/04/22 13:18:03;;;;;;;3.92;2.83;;;16.30;59.90;;;;;;5023224;28;20095;-74
2022/04/22 13:20:34;;;;;;;2.97;2.38;;;16.30;59.90;;;;;;5023417;28;20034;-74
2022/04/22 13:23:10;;;;;;;5.25;2.60;;;16.30;59.90;;;;;;5004810;28;20132;-75
2022/04/22 13:25:37;;;;;;;4.90;2.45;;;16.30;60.00;;;;;;5024764;28;20061;-74
2022/04/22 13:28:10;;;;;;;3.38;2.25;;;16.30;60.00;;;;;;5023526;28;20488;-74
2022/04/22 13:30:43;;;;;;;4.07;2.70;;;16.30;60.00;;;;;;5029415;28;20093;-75
2022/04/22 13:33:10;;;;;;;2.33;2.10;;;16.30;60.00;;;;;;5032668;28;20041;-74
2022/04/22 13:35:37;;;;;;;5.07;2.88;;;16.30;60.00;;;;;;5029783;28;20103;-74
2022/04/22 13:38:10;;;;;;;3.45;2.30;;;16.30;60.10;;;;;;5024969;28;20041;-74
2022/04/22 13:40:37;;;;;;;4.10;2.50;;;16.30;60.00;;;;;;5031496;28;20044;-74
2022/04/22 13:43:04;;;;;;;2.90;2.40;;;16.30;60.00;;;;;;5026693;28;20038;-74
2022/04/22 13:53:53;;;;;;;5.40;2.60;;;16.30;60.20;;;;;;5017316;28;20066;-74
2022/04/22 13:56:19;;;;;;;4.57;2.63;;;16.30;60.20;;;;;;5009666;28;20037;-74
2022/04/22 13:58:49;;;;;;;4.88;2.60;;;16.30;60.30;;;;;;5021393;28;20040;-74
2022/04/22 14:01:36;;;;;;;6.97;2.50;;;16.40;60.40;;;;;;5008239;28;20068;-74
2022/04/22 14:04:04;;;;;;;5.40;2.20;;;16.30;60.20;;;;;;5000582;28;20112;-73
2022/04/22 14:06:45;;;;;;;5.25;2.35;;;16.30;60.30;;;;;;4978642;28;20045;-74
2022/04/22 14:09:14;;;;;;;7.82;2.60;;;16.30;60.40;;;;;;5001891;28;20049;-73
2022/04/22 14:11:49;;;;;;;7.50;2.45;;;16.30;60.30;;;;;;4997495;28;20038;-75
2022/04/22 14:14:20;;;;;;;7.13;2.88;;;16.30;60.30;;;;;;4983630;28;20046;-74
2022/04/22 14:16:50;;;;;;;3.92;2.30;;;16.30;60.30;;;;;;4994963;28;20073;-74
2022/04/22 14:19:22;;;;;;;3.20;2.60;;;16.30;60.30;;;;;;4989010;28;20060;-74
2022/04/22 14:21:54;;;;;;;;;;;16.40;60.40;;;;;;5002605;28;20041;-74
2022/04/22 14:24:40;;;;;;;6.35;2.65;;;16.40;60.50;;;;;;4986771;28;19976;-73
2022/04/22 14:27:11;;;;;;;5.50;2.50;;;16.40;60.40;;;;;;4996179;28;20046;-74
2022/04/22 14:29:47;;;;;;;3.50;2.45;;;16.40;60.40;;;;;;4995680;28;20501;-73
2022/04/22 14:32:15;;;;;;;5.18;2.25;;;16.40;60.50;;;;;;4997413;28;20046;-74
2022/04/22 14:34:42;;;;;;;2.58;2.25;;;16.40;60.40;;;;;;5000741;28;20042;-73